sensor_id;sensor_type;location;lat;lon;timestamp;pressure;altitude;pressure_sealevel;temperature;humidity
5574;BME280;2563;52.242;7.956;2024-01-25T00:01:11;101753.38;;;7.81;100.00
5574;BME280;2563;52.242;7.956;2024-01-25T00:03:37;101752.47;;;7.78;100.00
5574;BME280;2563;52.242;7.956;2024-01-25T00:06:07;101743.09;;;7.78;100.00
5574;BME280;2563;52.242;7.956;2024-01-25T00:08:33;101751.66;;;7.79;100.00
5574;BME280;2563;52.242;7.956;2024-01-25T00:10:59;101750.81;;;7.81;100.00
5574;BME280;2563;52.242;7.956;2024-01-25T00:13:24;101746.50;;;7.80;100.00
5574;BME280;2563;52.242;7.956;2024-01-25T00:15:50;101749.97;;;7.81;100.00
5574;BME280;2563;52.242;7.956;2024-01-25T00:18:15;101754.19;;;7.77;100.00
5574;BME280;2563;52.242;7.956;2024-01-25T00:20:40;101746.50;;;7.74;100.00
5574;BME280;2563;52.242;7.956;2024-01-25T00:23:06;101753.38;;;7.78;100.00
5574;BME280;2563;52.242;7.956;2024-01-25T00:25:31;101748.19;;;7.75;100.00
5574;BME280;2563;52.242;7.956;2024-01-25T00:27:57;101749.06;;;7.74;100.00
5574;BME280;2563;52.242;7.956;2024-01-25T00:30:22;101753.38;;;7.78;100.00
5574;BME280;2563;52.242;7.956;2024-01-25T00:32:48;101753.38;;;7.81;100.00
5574;BME280;2563;52.242;7.956;2024-01-25T00:35:14;101752.50;;;7.79;100.00
5574;BME280;2563;52.242;7.956;2024-01-25T00:37:40;101749.88;;;7.73;100.00
5574;BME280;2563;52.242;7.956;2024-01-25T00:40:06;101752.47;;;7.72;100.00
5574;BME280;2563;52.242;7.956;2024-01-25T00:42:36;101747.31;;;7.73;100.00
5574;BME280;2563;52.242;7.956;2024-01-25T00:45:06;101749.88;;;7.70;100.00
5574;BME280;2563;52.242;7.956;2024-01-25T00:47:32;101749.88;;;7.70;100.00
5574;BME280;2563;52.242;7.956;2024-01-25T00:49:57;101750.72;;;7.71;100.00
5574;BME280;2563;52.242;7.956;2024-01-25T00:52:23;101753.31;;;7.72;100.00
5574;BME280;2563;52.242;7.956;2024-01-25T00:54:48;101743.91;;;7.73;100.00
5574;BME280;2563;52.242;7.956;2024-01-25T00:57:14;101747.31;;;7.73;100.00
5574;BME280;2563;52.242;7.956;2024-01-25T00:59:40;101763.56;;;7.72;100.00
5574;BME280;2563;52.242;7.956;2024-01-25T01:02:10;101757.53;;;7.67;100.00
5574;BME280;2563;52.242;7.956;2024-01-25T01:04:36;101754.97;;;7.67;100.00
5574;BME280;2563;52.242;7.956;2024-01-25T01:07:02;101752.41;;;7.64;100.00
5574;BME280;2563;52.242;7.956;2024-01-25T01:09:28;101749.00;;;7.66;100.00
5574;BME280;2563;52.242;7.956;2024-01-25T01:11:53;101749.81;;;7.62;100.00
5574;BME280;2563;52.242;7.956;2024-01-25T01:14:18;101756.66;;;7.62;100.00
5574;BME280;2563;52.242;7.956;2024-01-25T01:16:44;101753.16;;;7.51;100.00
5574;BME280;2563;52.242;7.956;2024-01-25T01:19:09;101738.59;;;7.46;100.00
5574;BME280;2563;52.242;7.956;2024-01-25T01:21:35;101741.13;;;7.40;100.00
5574;BME280;2563;52.242;7.956;2024-01-25T01:24:01;101752.19;;;7.38;100.00
5574;BME280;2563;52.242;7.956;2024-01-25T01:26:26;101743.66;;;7.36;100.00
5574;BME280;2563;52.242;7.956;2024-01-25T01:28:51;101738.41;;;7.25;100.00
5574;BME280;2563;52.242;7.956;2024-01-25T01:31:17;101745.13;;;7.09;100.00
5574;BME280;2563;52.242;7.956;2024-01-25T01:33:42;101749.44;;;7.15;100.00
5574;BME280;2563;52.242;7.956;2024-01-25T01:36:07;101746.75;;;7.02;100.00
5574;BME280;2563;52.242;7.956;2024-01-25T01:38:33;101739.94;;;7.06;100.00
5574;BME280;2563;52.242;7.956;2024-01-25T01:40:58;101749.34;;;7.07;100.00
5574;BME280;2563;52.242;7.956;2024-01-25T01:43:24;101744.22;;;7.09;100.00
5574;BME280;2563;52.242;7.956;2024-01-25T01:45:49;101751.91;;;7.09;100.00
5574;BME280;2563;52.242;7.956;2024-01-25T01:48:16;101744.22;;;7.09;100.00
5574;BME280;2563;52.242;7.956;2024-01-25T01:50:45;101750.19;;;7.06;100.00
5574;BME280;2563;52.242;7.956;2024-01-25T01:53:11;101754.44;;;7.02;100.00
5574;BME280;2563;52.242;7.956;2024-01-25T01:55:39;101749.31;;;7.02;100.00
5574;BME280;2563;52.242;7.956;2024-01-25T01:58:05;101757.03;;;7.04;100.00
5574;BME280;2563;52.242;7.956;2024-01-25T02:00:31;101754.38;;;6.95;100.00
5574;BME280;2563;52.242;7.956;2024-01-25T02:03:00;101749.13;;;6.84;100.00
5574;BME280;2563;52.242;7.956;2024-01-25T02:05:26;101754.19;;;6.78;100.00
5574;BME280;2563;52.242;7.956;2024-01-25T02:07:52;101750.78;;;6.79;100.00
5574;BME280;2563;52.242;7.956;2024-01-25T02:10:19;101744.84;;;6.83;100.00
5574;BME280;2563;52.242;7.956;2024-01-25T02:12:44;101746.50;;;6.78;100.00
5574;BME280;2563;52.242;7.956;2024-01-25T02:15:10;101742.19;;;6.74;100.00
5574;BME280;2563;52.242;7.956;2024-01-25T02:17:36;101764.31;;;6.69;100.00
5574;BME280;2563;52.242;7.956;2024-01-25T02:20:01;101751.50;;;6.70;100.00
5574;BME280;2563;52.242;7.956;2024-01-25T02:22:28;101756.00;;;6.88;100.00
5574;BME280;2563;52.242;7.956;2024-01-25T02:24:53;101750.78;;;6.82;100.00
5574;BME280;2563;52.242;7.956;2024-01-25T02:27:19;101751.72;;;6.89;100.00
5574;BME280;2563;52.242;7.956;2024-01-25T02:29:44;101756.00;;;6.88;100.00
5574;BME280;2563;52.242;7.956;2024-01-25T02:32:09;101764.53;;;6.89;100.00
5574;BME280;2563;52.242;7.956;2024-01-25T02:34:35;101765.31;;;6.85;100.00
5574;BME280;2563;52.242;7.956;2024-01-25T02:37:00;101773.03;;;6.86;100.00
5574;BME280;2563;52.242;7.956;2024-01-25T02:39:26;101790.03;;;6.81;100.00
5574;BME280;2563;52.242;7.956;2024-01-25T02:41:51;101796.94;;;6.88;100.00
5574;BME280;2563;52.242;7.956;2024-01-25T02:44:16;101801.22;;;6.88;100.00
5574;BME280;2563;52.242;7.956;2024-01-25T02:46:42;101810.53;;;6.84;100.00
5574;BME280;2563;52.242;7.956;2024-01-25T02:49:10;101825.84;;;6.78;100.00
5574;BME280;2563;52.242;7.956;2024-01-25T02:51:35;101819.75;;;6.70;100.00
5574;BME280;2563;52.242;7.956;2024-01-25T02:54:03;101818.03;;;6.70;100.00
5574;BME280;2563;52.242;7.956;2024-01-25T02:56:29;101823.28;;;6.78;100.00
5574;BME280;2563;52.242;7.956;2024-01-25T02:59:00;101822.41;;;6.77;100.00
5574;BME280;2563;52.242;7.956;2024-01-25T03:01:25;101831.84;;;6.80;100.00
5574;BME280;2563;52.242;7.956;2024-01-25T03:03:50;101831.00;;;6.84;100.00
5574;BME280;2563;52.242;7.956;2024-01-25T03:06:16;101833.63;;;6.89;100.00
5574;BME280;2563;52.242;7.956;2024-01-25T03:08:41;101837.91;;;6.88;100.00
5574;BME280;2563;52.242;7.956;2024-01-25T03:11:06;101854.09;;;6.87;100.00
5574;BME280;2563;52.242;7.956;2024-01-25T03:13:32;101852.44;;;6.91;100.00
5574;BME280;2563;52.242;7.956;2024-01-25T03:15:59;101856.75;;;6.96;100.00
5574;BME280;2563;52.242;7.956;2024-01-25T03:18:24;101855.09;;;7.01;100.00
5574;BME280;2563;52.242;7.956;2024-01-25T03:20:50;101850.81;;;6.97;100.00
5574;BME280;2563;52.242;7.956;2024-01-25T03:23:16;101851.63;;;6.96;100.00
5574;BME280;2563;52.242;7.956;2024-01-25T03:25:42;101850.78;;;6.96;100.00
5574;BME280;2563;52.242;7.956;2024-01-25T03:28:07;101856.72;;;6.93;100.00
5574;BME280;2563;52.242;7.956;2024-01-25T03:30:34;101848.91;;;6.81;100.00
5574;BME280;2563;52.242;7.956;2024-01-25T03:33:00;101849.66;;;6.74;100.00
5574;BME280;2563;52.242;7.956;2024-01-25T03:35:25;101854.75;;;6.71;100.00
5574;BME280;2563;52.242;7.956;2024-01-25T03:37:50;101854.63;;;6.62;100.00
5574;BME280;2563;52.242;7.956;2024-01-25T03:40:16;101850.25;;;6.56;100.00
5574;BME280;2563;52.242;7.956;2024-01-25T03:42:41;101857.84;;;6.48;100.00
5574;BME280;2563;52.242;7.956;2024-01-25T03:45:07;101867.88;;;6.33;100.00
5574;BME280;2563;52.242;7.956;2024-01-25T03:47:32;101864.38;;;6.29;100.00
5574;BME280;2563;52.242;7.956;2024-01-25T03:49:57;101869.56;;;6.34;100.00
5574;BME280;2563;52.242;7.956;2024-01-25T03:52:23;101867.88;;;6.33;100.00
5574;BME280;2563;52.242;7.956;2024-01-25T03:54:49;101855.94;;;6.33;100.00
5574;BME280;2563;52.242;7.956;2024-01-25T03:57:14;101849.03;;;6.28;100.00
5574;BME280;2563;52.242;7.956;2024-01-25T03:59:39;101855.78;;;6.23;100.00
5574;BME280;2563;52.242;7.956;2024-01-25T04:02:05;101855.69;;;6.16;100.00
5574;BME280;2563;52.242;7.956;2024-01-25T04:04:30;101857.31;;;6.11;100.00
5574;BME280;2563;52.242;7.956;2024-01-25T04:06:55;101859.66;;;5.97;100.00
5574;BME280;2563;52.242;7.956;2024-01-25T04:09:20;101858.00;;;6.00;100.00
5574;BME280;2563;52.242;7.956;2024-01-25T04:11:46;101842.50;;;5.93;100.00
5574;BME280;2563;52.242;7.956;2024-01-25T04:14:11;101835.84;;;5.99;100.00
5574;BME280;2563;52.242;7.956;2024-01-25T04:16:37;101831.44;;;5.93;100.00
5574;BME280;2563;52.242;7.956;2024-01-25T04:19:02;101827.09;;;5.89;100.00
5574;BME280;2563;52.242;7.956;2024-01-25T04:21:27;101821.00;;;5.78;100.00
5574;BME280;2563;52.242;7.956;2024-01-25T04:23:53;101824.34;;;5.75;100.00
5574;BME280;2563;52.242;7.956;2024-01-25T04:26:18;101810.81;;;5.81;100.00
5574;BME280;2563;52.242;7.956;2024-01-25T04:28:44;101816.53;;;5.67;100.00
5574;BME280;2563;52.242;7.956;2024-01-25T04:31:09;101811.47;;;5.69;100.00
5574;BME280;2563;52.242;7.956;2024-01-25T04:33:35;101812.25;;;5.63;100.00
5574;BME280;2563;52.242;7.956;2024-01-25T04:36:00;101801.09;;;5.60;100.00
5574;BME280;2563;52.242;7.956;2024-01-25T04:38:26;101800.13;;;5.53;100.00
5574;BME280;2563;52.242;7.956;2024-01-25T04:40:51;101782.25;;;5.53;100.00
5574;BME280;2563;52.242;7.956;2024-01-25T04:43:16;101779.66;;;5.50;100.00
5574;BME280;2563;52.242;7.956;2024-01-25T04:45:42;101770.34;;;5.52;100.00
5574;BME280;2563;52.242;7.956;2024-01-25T04:48:11;101782.16;;;5.47;100.00
5574;BME280;2563;52.242;7.956;2024-01-25T04:50:38;101772.72;;;5.43;100.00
5574;BME280;2563;52.242;7.956;2024-01-25T04:53:04;101765.75;;;5.32;100.00
5574;BME280;2563;52.242;7.956;2024-01-25T04:55:29;101767.53;;;5.37;100.00
5574;BME280;2563;52.242;7.956;2024-01-25T04:57:55;101758.09;;;5.32;100.00
5574;BME280;2563;52.242;7.956;2024-01-25T05:00:22;101757.25;;;5.32;100.00
5574;BME280;2563;52.242;7.956;2024-01-25T05:02:47;101756.22;;;5.22;100.00
5574;BME280;2563;52.242;7.956;2024-01-25T05:05:13;101761.34;;;5.22;100.00
5574;BME280;2563;52.242;7.956;2024-01-25T05:07:39;101744.34;;;5.24;100.00
5574;BME280;2563;52.242;7.956;2024-01-25T05:10:04;101743.34;;;5.16;100.00
5574;BME280;2563;52.242;7.956;2024-01-25T05:12:30;101737.31;;;5.11;100.00
5574;BME280;2563;52.242;7.956;2024-01-25T05:14:55;101740.63;;;5.07;100.00
5574;BME280;2563;52.242;7.956;2024-01-25T05:17:20;101726.88;;;4.99;100.00
5574;BME280;2563;52.242;7.956;2024-01-25T05:19:46;101722.72;;;5.04;100.00
5574;BME280;2563;52.242;7.956;2024-01-25T05:22:11;101714.09;;;4.96;100.00
5574;BME280;2563;52.242;7.956;2024-01-25T05:24:36;101708.81;;;4.86;100.00
5574;BME280;2563;52.242;7.956;2024-01-25T05:27:02;101688.66;;;5.02;100.00
5574;BME280;2563;52.242;7.956;2024-01-25T05:29:28;101682.00;;;5.10;100.00
5574;BME280;2563;52.242;7.956;2024-01-25T05:31:53;101669.28;;;5.13;100.00
5574;BME280;2563;52.242;7.956;2024-01-25T05:34:19;101676.75;;;5.01;100.00
5574;BME280;2563;52.242;7.956;2024-01-25T05:36:44;101680.13;;;5.00;100.00
5574;BME280;2563;52.242;7.956;2024-01-25T05:39:09;101669.03;;;4.98;100.00
5574;BME280;2563;52.242;7.956;2024-01-25T05:41:35;101664.84;;;5.01;100.00
5574;BME280;2563;52.242;7.956;2024-01-25T05:44:00;101658.81;;;4.98;100.00
5574;BME280;2563;52.242;7.956;2024-01-25T05:46:26;101649.50;;;5.00;100.00
5574;BME280;2563;52.242;7.956;2024-01-25T05:48:51;101641.75;;;4.94;100.00
5574;BME280;2563;52.242;7.956;2024-01-25T05:51:17;101635.75;;;4.92;100.00
5574;BME280;2563;52.242;7.956;2024-01-25T05:53:42;101628.22;;;4.99;100.00
5574;BME280;2563;52.242;7.956;2024-01-25T05:56:08;101625.56;;;4.93;100.00
5574;BME280;2563;52.242;7.956;2024-01-25T05:58:33;101632.47;;;4.99;100.00
5574;BME280;2563;52.242;7.956;2024-01-25T06:00:58;101625.53;;;4.90;100.00
5574;BME280;2563;52.242;7.956;2024-01-25T06:03:24;101631.44;;;4.87;100.00
5574;BME280;2563;52.242;7.956;2024-01-25T06:05:49;101631.44;;;4.87;100.00
5574;BME280;2563;52.242;7.956;2024-01-25T06:08:14;101628.03;;;4.87;100.00
5574;BME280;2563;52.242;7.956;2024-01-25T06:10:40;101619.72;;;4.99;100.00
5574;BME280;2563;52.242;7.956;2024-01-25T06:13:05;101617.78;;;4.85;100.00
5574;BME280;2563;52.242;7.956;2024-01-25T06:15:30;101623.59;;;4.75;100.00
5574;BME280;2563;52.242;7.956;2024-01-25T06:17:56;101626.94;;;4.73;100.00
5574;BME280;2563;52.242;7.956;2024-01-25T06:20:22;101632.94;;;4.75;100.00
5574;BME280;2563;52.242;7.956;2024-01-25T06:22:48;101657.63;;;4.77;100.00
5574;BME280;2563;52.242;7.956;2024-01-25T06:25:13;101662.59;;;4.69;100.00
5574;BME280;2563;52.242;7.956;2024-01-25T06:27:38;101668.38;;;4.61;100.00
5574;BME280;2563;52.242;7.956;2024-01-25T06:30:04;101664.75;;;4.48;100.00
5574;BME280;2563;52.242;7.956;2024-01-25T06:32:30;101668.97;;;4.47;100.00
5574;BME280;2563;52.242;7.956;2024-01-25T06:34:56;101668.81;;;4.38;100.00
5574;BME280;2563;52.242;7.956;2024-01-25T06:37:21;101668.94;;;4.44;100.00
5574;BME280;2563;52.242;7.956;2024-01-25T06:39:47;101654.53;;;4.46;100.00
5574;BME280;2563;52.242;7.956;2024-01-25T06:42:12;101651.13;;;4.46;100.00
5574;BME280;2563;52.242;7.956;2024-01-25T06:44:38;101657.78;;;4.39;100.00
5574;BME280;2563;52.242;7.956;2024-01-25T06:47:03;101641.66;;;4.40;100.00
5574;BME280;2563;52.242;7.956;2024-01-25T06:49:29;101650.22;;;4.44;100.00
5574;BME280;2563;52.242;7.956;2024-01-25T06:51:54;101662.97;;;4.44;100.00
5574;BME280;2563;52.242;7.956;2024-01-25T06:54:19;101653.69;;;4.47;100.00
5574;BME280;2563;52.242;7.956;2024-01-25T06:56:45;101654.47;;;4.43;100.00
5574;BME280;2563;52.242;7.956;2024-01-25T06:59:10;101649.47;;;4.48;100.00
5574;BME280;2563;52.242;7.956;2024-01-25T07:01:35;101646.03;;;4.47;100.00
5574;BME280;2563;52.242;7.956;2024-01-25T07:04:01;101650.28;;;4.45;100.00
5574;BME280;2563;52.242;7.956;2024-01-25T07:06:26;101655.38;;;4.45;100.00
5574;BME280;2563;52.242;7.956;2024-01-25T07:08:52;101647.63;;;4.42;100.00
5574;BME280;2563;52.242;7.956;2024-01-25T07:11:18;101656.09;;;4.40;100.00
5574;BME280;2563;52.242;7.956;2024-01-25T07:13:44;101650.31;;;4.48;100.00
5574;BME280;2563;52.242;7.956;2024-01-25T07:16:09;101641.94;;;4.56;100.00
5574;BME280;2563;52.242;7.956;2024-01-25T07:18:34;101631.69;;;4.53;100.00
5574;BME280;2563;52.242;7.956;2024-01-25T07:21:00;101631.00;;;4.61;100.00
5574;BME280;2563;52.242;7.956;2024-01-25T07:23:25;101640.13;;;4.48;100.00
5574;BME280;2563;52.242;7.956;2024-01-25T07:25:52;101636.72;;;4.50;100.00
5574;BME280;2563;52.242;7.956;2024-01-25T07:28:21;101636.69;;;4.46;100.00
5574;BME280;2563;52.242;7.956;2024-01-25T07:30:49;101638.47;;;4.52;100.00
5574;BME280;2563;52.242;7.956;2024-01-25T07:33:15;101631.75;;;4.56;100.00
5574;BME280;2563;52.242;7.956;2024-01-25T07:35:41;101632.59;;;4.56;100.00
5574;BME280;2563;52.242;7.956;2024-01-25T07:38:11;101611.44;;;4.62;100.00
5574;BME280;2563;52.242;7.956;2024-01-25T07:40:36;101600.56;;;4.71;100.00
5574;BME280;2563;52.242;7.956;2024-01-25T07:43:02;101594.47;;;4.64;100.00
5574;BME280;2563;52.242;7.956;2024-01-25T07:45:28;101591.16;;;4.68;100.00
5574;BME280;2563;52.242;7.956;2024-01-25T07:47:53;101590.38;;;4.74;100.00
5574;BME280;2563;52.242;7.956;2024-01-25T07:50:19;101581.97;;;4.78;100.00
5574;BME280;2563;52.242;7.956;2024-01-25T07:52:44;101579.50;;;4.82;100.00
5574;BME280;2563;52.242;7.956;2024-01-25T07:55:10;101580.41;;;4.87;100.00
5574;BME280;2563;52.242;7.956;2024-01-25T07:57:35;101594.09;;;4.91;100.00
5574;BME280;2563;52.242;7.956;2024-01-25T08:00:00;101595.03;;;4.98;100.00
5574;BME280;2563;52.242;7.956;2024-01-25T08:02:26;101595.13;;;5.04;100.00
5574;BME280;2563;52.242;7.956;2024-01-25T08:04:51;101601.13;;;5.07;100.00
5574;BME280;2563;52.242;7.956;2024-01-25T08:07:17;101604.56;;;5.08;100.00
5574;BME280;2563;52.242;7.956;2024-01-25T08:09:42;101615.69;;;5.13;100.00
5574;BME280;2563;52.242;7.956;2024-01-25T08:12:08;101610.63;;;5.16;100.00
5574;BME280;2563;52.242;7.956;2024-01-25T08:14:33;101629.38;;;5.18;100.00
5574;BME280;2563;52.242;7.956;2024-01-25T08:16:59;101631.16;;;5.22;100.00
5574;BME280;2563;52.242;7.956;2024-01-25T08:19:24;101645.59;;;5.20;100.00
5574;BME280;2563;52.242;7.956;2024-01-25T08:21:50;101646.31;;;5.13;100.00
5574;BME280;2563;52.242;7.956;2024-01-25T08:24:15;101652.31;;;5.15;100.00
5574;BME280;2563;52.242;7.956;2024-01-25T08:26:41;101652.28;;;5.14;100.00
5574;BME280;2563;52.242;7.956;2024-01-25T08:29:06;101671.97;;;5.21;100.00
5574;BME280;2563;52.242;7.956;2024-01-25T08:31:32;101674.56;;;5.24;100.00
5574;BME280;2563;52.242;7.956;2024-01-25T08:33:57;101679.78;;;5.31;100.00
5574;BME280;2563;52.242;7.956;2024-01-25T08:36:22;101677.28;;;5.35;100.00
5574;BME280;2563;52.242;7.956;2024-01-25T08:38:48;101678.25;;;5.41;100.00
5574;BME280;2563;52.242;7.956;2024-01-25T08:41:13;101690.16;;;5.42;100.00
5574;BME280;2563;52.242;7.956;2024-01-25T08:43:40;101693.56;;;5.41;100.00
5574;BME280;2563;52.242;7.956;2024-01-25T08:46:06;101702.16;;;5.46;100.00
5574;BME280;2563;52.242;7.956;2024-01-25T08:48:31;101699.78;;;5.60;100.00
5574;BME280;2563;52.242;7.956;2024-01-25T08:50:57;101693.16;;;5.71;100.00
5574;BME280;2563;52.242;7.956;2024-01-25T08:53:22;101701.72;;;5.76;100.00
5574;BME280;2563;52.242;7.956;2024-01-25T08:55:52;101684.16;;;5.96;100.00
5574;BME280;2563;52.242;7.956;2024-01-25T08:58:17;101698.19;;;6.28;100.00
5574;BME280;2563;52.242;7.956;2024-01-25T09:00:42;101697.47;;;6.41;100.00
5574;BME280;2563;52.242;7.956;2024-01-25T09:03:08;101701.66;;;6.34;100.00
5574;BME280;2563;52.242;7.956;2024-01-25T09:05:33;101709.44;;;6.42;100.00
5574;BME280;2563;52.242;7.956;2024-01-25T09:08:03;101708.66;;;6.51;100.00
5574;BME280;2563;52.242;7.956;2024-01-25T09:10:29;101716.28;;;6.46;100.00
5574;BME280;2563;52.242;7.956;2024-01-25T09:12:54;101727.44;;;6.50;100.00
5574;BME280;2563;52.242;7.956;2024-01-25T09:15:19;101735.00;;;6.42;100.00
5574;BME280;2563;52.242;7.956;2024-01-25T09:17:45;101756.09;;;6.23;100.00
5574;BME280;2563;52.242;7.956;2024-01-25T09:20:10;101763.78;;;6.26;100.00
5574;BME280;2563;52.242;7.956;2024-01-25T09:22:36;101776.63;;;6.30;100.00
5574;BME280;2563;52.242;7.956;2024-01-25T09:25:02;101785.19;;;6.34;100.00
5574;BME280;2563;52.242;7.956;2024-01-25T09:27:28;101790.44;;;6.43;100.00
5574;BME280;2563;52.242;7.956;2024-01-25T09:29:53;101798.06;;;6.40;100.00
5574;BME280;2563;52.242;7.956;2024-01-25T09:32:18;101825.13;;;6.23;100.00
5574;BME280;2563;52.242;7.956;2024-01-25T09:34:45;101827.09;;;6.42;100.00
5574;BME280;2563;52.242;7.956;2024-01-25T09:37:11;101829.63;;;6.41;100.00
5574;BME280;2563;52.242;7.956;2024-01-25T09:39:36;101825.44;;;6.49;100.00
5574;BME280;2563;52.242;7.956;2024-01-25T09:42:03;101839.97;;;6.50;100.00
5574;BME280;2563;52.242;7.956;2024-01-25T09:44:28;101841.66;;;6.48;100.00
5574;BME280;2563;52.242;7.956;2024-01-25T09:46:54;101859.34;;;6.34;100.00
5574;BME280;2563;52.242;7.956;2024-01-25T09:49:20;101852.59;;;6.39;100.00
5574;BME280;2563;52.242;7.956;2024-01-25T09:51:46;101844.16;;;6.46;100.00
5574;BME280;2563;52.242;7.956;2024-01-25T09:54:13;101855.41;;;6.57;100.00
5574;BME280;2563;52.242;7.956;2024-01-25T09:56:41;101868.06;;;6.48;100.00
5574;BME280;2563;52.242;7.956;2024-01-25T09:59:08;101858.28;;;6.82;100.00
5574;BME280;2563;52.242;7.956;2024-01-25T10:01:34;101863.22;;;7.40;100.00
5574;BME280;2563;52.242;7.956;2024-01-25T10:03:59;101868.69;;;7.80;100.00
5574;BME280;2563;52.242;7.956;2024-01-25T10:06:25;101888.44;;;7.90;100.00
5574;BME280;2563;52.242;7.956;2024-01-25T10:08:52;101906.34;;;7.87;100.00
5574;BME280;2563;52.242;7.956;2024-01-25T10:11:17;101930.53;;;8.15;100.00
5574;BME280;2563;52.242;7.956;2024-01-25T10:13:44;101960.41;;;8.10;100.00
5574;BME280;2563;52.242;7.956;2024-01-25T10:16:14;101975.63;;;7.92;100.00
5574;BME280;2563;52.242;7.956;2024-01-25T10:18:41;101980.91;;;8.08;100.00
5574;BME280;2563;52.242;7.956;2024-01-25T10:21:09;101966.19;;;7.89;100.00
5574;BME280;2563;52.242;7.956;2024-01-25T10:23:35;101968.84;;;7.98;100.00
5574;BME280;2563;52.242;7.956;2024-01-25T10:26:00;101968.78;;;7.91;100.00
5574;BME280;2563;52.242;7.956;2024-01-25T10:28:25;101957.00;;;8.09;100.00
5574;BME280;2563;52.242;7.956;2024-01-25T10:30:55;101961.34;;;8.17;100.00
5574;BME280;2563;52.242;7.956;2024-01-25T10:33:24;101970.59;;;8.04;100.00
5574;BME280;2563;52.242;7.956;2024-01-25T10:35:50;101979.09;;;7.97;100.00
5574;BME280;2563;52.242;7.956;2024-01-25T10:38:20;101982.28;;;7.74;100.00
5574;BME280;2563;52.242;7.956;2024-01-25T10:40:46;101985.69;;;7.73;100.00
5574;BME280;2563;52.242;7.956;2024-01-25T10:43:11;101985.59;;;7.64;100.00
5574;BME280;2563;52.242;7.956;2024-01-25T10:45:37;101982.06;;;7.53;100.00
5574;BME280;2563;52.242;7.956;2024-01-25T10:48:03;101980.47;;;7.64;100.00
5574;BME280;2563;52.242;7.956;2024-01-25T10:50:28;101968.63;;;7.75;100.00
5574;BME280;2563;52.242;7.956;2024-01-25T10:52:54;101964.38;;;7.76;100.00
5574;BME280;2563;52.242;7.956;2024-01-25T10:55:20;101966.16;;;7.84;100.00
5574;BME280;2563;52.242;7.956;2024-01-25T10:57:46;101965.22;;;7.76;100.00
5574;BME280;2563;52.242;7.956;2024-01-25T11:00:13;101960.16;;;7.82;100.00
5574;BME280;2563;52.242;7.956;2024-01-25T11:02:44;101950.88;;;7.97;100.00
5574;BME280;2563;52.242;7.956;2024-01-25T11:05:14;101945.88;;;8.10;100.00
5574;BME280;2563;52.242;7.956;2024-01-25T11:07:46;101942.81;;;8.53;100.00
5574;BME280;2563;52.242;7.956;2024-01-25T11:10:16;101940.47;;;8.93;100.00
5574;BME280;2563;52.242;7.956;2024-01-25T11:12:59;101942.25;;;9.09;100.00
5574;BME280;2563;52.242;7.956;2024-01-25T11:15:33;101961.13;;;9.11;100.00
5574;BME280;2563;52.242;7.956;2024-01-25T11:18:01;101971.47;;;9.30;100.00
5574;BME280;2563;52.242;7.956;2024-01-25T11:20:29;101966.44;;;9.74;100.00
5574;BME280;2563;52.242;7.956;2024-01-25T11:23:15;101980.09;;;9.50;100.00
5574;BME280;2563;52.242;7.956;2024-01-25T11:25:44;101989.53;;;9.44;100.00
5574;BME280;2563;52.242;7.956;2024-01-25T11:28:10;101987.03;;;9.79;100.00
5574;BME280;2563;52.242;7.956;2024-01-25T11:30:36;102000.63;;;9.38;100.00
5574;BME280;2563;52.242;7.956;2024-01-25T11:33:07;101992.13;;;9.54;100.00
5574;BME280;2563;52.242;7.956;2024-01-25T11:35:32;101986.13;;;9.51;100.00
5574;BME280;2563;52.242;7.956;2024-01-25T11:37:58;101991.34;;;9.75;100.00
5574;BME280;2563;52.242;7.956;2024-01-25T11:40:23;101987.06;;;10.00;100.00
5574;BME280;2563;52.242;7.956;2024-01-25T11:42:50;101997.38;;;9.91;100.00
5574;BME280;2563;52.242;7.956;2024-01-25T11:45:16;101990.44;;;11.10;100.00
5574;BME280;2563;52.242;7.956;2024-01-25T11:47:43;101986.28;;;12.40;100.00
5574;BME280;2563;52.242;7.956;2024-01-25T11:50:11;101999.53;;;13.69;100.00
5574;BME280;2563;52.242;7.956;2024-01-25T11:52:37;102011.34;;;13.87;100.00
5574;BME280;2563;52.242;7.956;2024-01-25T11:55:07;101998.25;;;14.50;100.00
5574;BME280;2563;52.242;7.956;2024-01-25T11:57:42;102012.78;;;12.61;100.00
5574;BME280;2563;52.242;7.956;2024-01-25T12:00:13;102017.97;;;13.43;100.00
5574;BME280;2563;52.242;7.956;2024-01-25T12:02:39;102002.13;;;14.26;100.00
5574;BME280;2563;52.242;7.956;2024-01-25T12:05:06;102021.41;;;13.43;100.00
5574;BME280;2563;52.242;7.956;2024-01-25T12:07:34;102040.25;;;12.72;100.00
5574;BME280;2563;52.242;7.956;2024-01-25T12:10:08;102046.50;;;12.42;100.00
5574;BME280;2563;52.242;7.956;2024-01-25T12:12:36;102044.47;;;12.78;100.00
5574;BME280;2563;52.242;7.956;2024-01-25T12:15:05;102037.91;;;14.01;100.00
5574;BME280;2563;52.242;7.956;2024-01-25T12:17:31;102041.47;;;13.94;100.00
5574;BME280;2563;52.242;7.956;2024-01-25T12:19:58;102023.28;;;13.95;100.00
5574;BME280;2563;52.242;7.956;2024-01-25T12:22:26;102042.94;;;10.57;100.00
5574;BME280;2563;52.242;7.956;2024-01-25T12:24:54;102033.41;;;10.04;100.00
5574;BME280;2563;52.242;7.956;2024-01-25T12:27:24;102026.56;;;10.09;100.00
5574;BME280;2563;52.242;7.956;2024-01-25T12:29:51;102027.06;;;9.11;100.00
5574;BME280;2563;52.242;7.956;2024-01-25T12:32:19;102003.06;;;9.10;100.00
5574;BME280;2563;52.242;7.956;2024-01-25T12:34:58;101992.03;;;9.27;100.00
5574;BME280;2563;52.242;7.956;2024-01-25T12:37:25;101992.13;;;9.54;100.00
5574;BME280;2563;52.242;7.956;2024-01-25T12:39:51;101989.19;;;8.78;100.00
5574;BME280;2563;52.242;7.956;2024-01-25T12:42:18;101978.53;;;10.01;100.00
5574;BME280;2563;52.242;7.956;2024-01-25T12:44:43;101998.84;;;9.22;100.00
5574;BME280;2563;52.242;7.956;2024-01-25T12:47:10;101990.09;;;8.87;100.00
5574;BME280;2563;52.242;7.956;2024-01-25T12:49:39;101993.63;;;9.09;100.00
5574;BME280;2563;52.242;7.956;2024-01-25T12:52:04;101993.72;;;9.25;100.00
5574;BME280;2563;52.242;7.956;2024-01-25T12:54:30;101988.63;;;9.29;100.00
5574;BME280;2563;52.242;7.956;2024-01-25T12:56:55;101979.38;;;9.90;100.00
5574;BME280;2563;52.242;7.956;2024-01-25T12:59:21;101970.72;;;11.09;100.00
5574;BME280;2563;52.242;7.956;2024-01-25T13:01:46;101973.00;;;11.67;100.00
5574;BME280;2563;52.242;7.956;2024-01-25T13:04:12;101991.38;;;9.95;100.00